createdAt,value
2016-10-19T19:30:56.999Z,954.86
2016-10-19T19:31:13.710Z,954.88
2016-10-19T19:32:16.371Z,954.88
2016-10-19T19:33:13.557Z,954.86
2016-10-19T19:34:13.541Z,954.81
2016-10-19T19:35:13.690Z,954.85
2016-10-19T19:36:14.034Z,954.82
2016-10-19T19:37:15.257Z,954.88
2016-10-19T19:38:13.538Z,954.90
2016-10-19T19:39:13.938Z,954.89
2016-10-19T19:40:13.350Z,954.90
2016-10-19T19:41:13.604Z,954.94
2016-10-19T19:42:11.561Z,954.89
2016-10-19T19:43:13.787Z,954.91
2016-10-19T19:44:13.473Z,954.88
2016-10-19T19:45:13.954Z,954.89
2016-10-19T19:46:13.482Z,954.88
2016-10-19T19:47:14.272Z,954.88
2016-10-19T19:48:13.834Z,954.85
2016-10-19T19:49:13.362Z,954.84
2016-10-19T19:50:11.646Z,954.82
2016-10-19T19:51:14.083Z,954.85
2016-10-19T19:52:13.221Z,954.85
2016-10-19T19:53:10.496Z,954.85
2016-10-19T19:54:13.803Z,954.84
2016-10-19T19:55:14.194Z,954.87
2016-10-19T19:56:13.942Z,954.84
2016-10-19T19:57:13.671Z,954.74
2016-10-19T19:58:14.246Z,954.80
2016-10-19T19:59:14.018Z,954.75
2016-10-19T20:00:19.152Z,954.80
2016-10-19T20:01:13.693Z,954.78
2016-10-19T20:02:14.192Z,954.78
2016-10-19T20:03:14.068Z,954.75
2016-10-19T20:04:14.746Z,954.83
2016-10-19T20:05:13.595Z,954.81
2016-10-19T20:06:13.172Z,954.79
2016-10-19T20:07:13.827Z,954.81
2016-10-19T20:08:13.538Z,954.83
2016-10-19T20:09:15.343Z,954.80
2016-10-19T20:10:14.182Z,954.78
2016-10-19T20:11:13.641Z,954.76
2016-10-19T20:12:14.759Z,954.81
2016-10-19T20:13:12.449Z,954.77
2016-10-19T20:14:14.286Z,954.81
2016-10-19T20:15:14.098Z,954.78
2016-10-19T20:16:13.828Z,954.77
2016-10-19T20:17:14.117Z,954.76
2016-10-19T20:18:13.890Z,954.76
2016-10-19T20:19:13.419Z,954.77
2016-10-19T20:20:13.375Z,954.75
2016-10-19T20:21:14.273Z,954.76
2016-10-19T20:22:35.427Z,954.80
2016-10-19T20:23:13.963Z,954.78
2016-10-19T20:24:13.642Z,954.80
2016-10-19T20:25:14.525Z,954.79
2016-10-19T20:26:13.574Z,954.77
2016-10-19T20:27:15.304Z,954.77
2016-10-19T20:28:14.427Z,954.75
2016-10-19T20:29:13.235Z,954.76
2016-10-19T20:30:13.255Z,954.74
2016-10-19T20:31:13.573Z,954.77
2016-10-19T20:32:13.173Z,954.79
2016-10-19T20:33:14.267Z,954.76
2016-10-19T20:34:20.390Z,954.76
2016-10-19T20:35:13.956Z,954.74
2016-10-19T20:36:11.855Z,954.73
2016-10-19T20:37:12.441Z,954.71
2016-10-19T20:38:14.575Z,954.74
2016-10-19T20:39:13.946Z,954.73
2016-10-19T20:40:14.117Z,954.74
2016-10-19T20:41:12.840Z,954.71
2016-10-19T20:42:13.481Z,954.76
2016-10-19T20:43:13.396Z,954.74
2016-10-19T20:44:13.556Z,954.78
2016-10-19T20:45:13.353Z,954.77
2016-10-19T20:46:13.309Z,954.76
2016-10-19T20:47:12.621Z,954.77
2016-10-19T20:48:11.316Z,954.75
2016-10-19T20:49:12.317Z,954.80
2016-10-19T20:50:12.725Z,954.78
2016-10-19T20:51:13.575Z,954.76
2016-10-19T20:52:13.270Z,954.76
2016-10-19T20:53:12.866Z,954.78
2016-10-19T20:54:11.987Z,954.73
2016-10-19T20:55:12.632Z,954.72
2016-10-19T20:56:14.382Z,954.69
2016-10-19T20:57:12.623Z,954.71
2016-10-19T20:58:13.405Z,954.73
2016-10-19T20:59:12.401Z,954.74
2016-10-19T21:00:12.541Z,954.76
2016-10-19T21:01:10.808Z,954.71
2016-10-19T21:02:12.642Z,954.79
2016-10-19T21:03:14.697Z,954.78
2016-10-19T21:04:13.154Z,954.74
2016-10-19T21:05:12.176Z,954.75
2016-10-19T21:06:12.211Z,954.69
2016-10-19T21:07:12.794Z,954.71
2016-10-19T21:08:12.136Z,954.69
2016-10-19T21:09:13.676Z,954.64
2016-10-19T21:10:14.621Z,954.65
2016-10-19T21:11:10.895Z,954.65
2016-10-19T21:12:13.855Z,954.65
2016-10-19T21:13:12.779Z,954.70
2016-10-19T21:14:13.230Z,954.60
2016-10-19T21:15:13.889Z,954.62
2016-10-19T21:16:14.827Z,954.62
2016-10-19T21:17:18.347Z,954.61
2016-10-19T21:18:12.770Z,954.60
2016-10-19T21:19:12.161Z,954.60
2016-10-19T21:20:14.095Z,954.60
2016-10-19T21:21:13.063Z,954.60
2016-10-19T21:22:13.425Z,954.62
2016-10-19T21:23:10.666Z,954.64
2016-10-19T21:24:15.175Z,954.63
2016-10-19T21:25:14.464Z,954.61
2016-10-19T21:26:12.653Z,954.60
2016-10-19T21:27:13.164Z,954.61
2016-10-19T21:28:12.947Z,954.59
2016-10-19T21:29:15.283Z,954.62
2016-10-19T21:30:14.325Z,954.59
2016-10-19T21:31:12.306Z,954.60
2016-10-19T21:32:13.373Z,954.58
2016-10-19T21:33:12.947Z,954.58
2016-10-19T21:34:14.107Z,954.57
2016-10-19T21:35:12.631Z,954.59
2016-10-19T21:36:13.770Z,954.57
2016-10-19T21:37:12.944Z,954.57
2016-10-19T21:38:13.017Z,954.59
2016-10-19T21:39:13.063Z,954.57
2016-10-19T21:40:13.034Z,954.56
2016-10-19T21:41:12.578Z,954.54
2016-10-19T21:42:12.691Z,954.49
2016-10-19T21:43:13.128Z,954.52
2016-10-19T21:44:12.934Z,954.51
2016-10-19T21:45:12.407Z,954.50
2016-10-19T21:46:12.900Z,954.50
2016-10-19T21:47:12.813Z,954.50
2016-10-19T21:48:12.560Z,954.50
2016-10-19T21:49:12.742Z,954.53
2016-10-19T21:50:15.856Z,954.57
2016-10-19T21:51:17.797Z,954.57
2016-10-19T21:52:12.459Z,954.55
2016-10-19T21:53:13.035Z,954.58
2016-10-19T21:54:13.748Z,954.55
2016-10-19T21:55:17.375Z,954.52
2016-10-19T21:56:12.620Z,954.53
2016-10-19T21:57:13.351Z,954.53
2016-10-19T21:58:12.408Z,954.49
2016-10-19T21:59:11.254Z,954.49
2016-10-19T22:00:13.656Z,954.51
2016-10-19T22:01:13.436Z,954.52
2016-10-19T22:02:13.217Z,954.49
2016-10-19T22:03:14.333Z,954.52
2016-10-19T22:04:13.424Z,954.46
2016-10-19T22:05:14.202Z,954.51
2016-10-19T22:06:13.471Z,954.47
2016-10-19T22:07:18.416Z,954.44
2016-10-19T22:08:12.149Z,954.46
2016-10-19T22:09:19.498Z,954.46
2016-10-19T22:10:12.815Z,954.47
2016-10-19T22:11:12.447Z,954.47
2016-10-19T22:12:15.062Z,954.48
2016-10-19T22:13:12.489Z,954.50
2016-10-19T22:14:13.798Z,954.46
2016-10-19T22:15:11.978Z,954.48
2016-10-19T22:16:14.087Z,954.48
2016-10-19T22:17:12.800Z,954.46
2016-10-19T22:18:12.391Z,954.45
2016-10-19T22:19:13.965Z,954.44
2016-10-19T22:20:14.562Z,954.40
2016-10-19T22:21:13.341Z,954.43
2016-10-19T22:22:13.948Z,954.42
2016-10-19T22:23:15.300Z,954.40
2016-10-19T22:24:13.181Z,954.45
2016-10-19T22:25:12.493Z,954.41
2016-10-19T22:26:12.795Z,954.42
2016-10-19T22:27:13.786Z,954.37
2016-10-19T22:28:18.770Z,954.37
2016-10-19T22:29:10.507Z,954.37
2016-10-19T22:30:12.766Z,954.34
2016-10-19T22:31:15.637Z,954.36
2016-10-19T22:32:13.689Z,954.40
2016-10-19T22:33:13.399Z,954.39
2016-10-19T22:34:15.067Z,954.38
2016-10-19T22:35:13.226Z,954.35
2016-10-19T22:36:13.899Z,954.38
2016-10-19T22:37:09.571Z,954.40
2016-10-19T22:38:14.110Z,954.37
2016-10-19T22:39:12.878Z,954.39
2016-10-19T22:40:11.794Z,954.36
2016-10-19T22:41:13.025Z,954.36
2016-10-19T22:42:13.179Z,954.38
2016-10-19T22:43:13.198Z,954.39
2016-10-19T22:44:12.967Z,954.37
2016-10-19T22:45:13.031Z,954.38
2016-10-19T22:46:12.791Z,954.35
2016-10-19T22:47:11.940Z,954.39
2016-10-19T22:48:13.871Z,954.38
2016-10-19T22:49:12.624Z,954.32
2016-10-19T22:50:13.678Z,954.32
2016-10-19T22:51:12.680Z,954.34
2016-10-19T22:52:12.749Z,954.33
2016-10-19T22:53:12.386Z,954.28
2016-10-19T22:54:19.931Z,954.33
2016-10-19T22:55:12.456Z,954.31
2016-10-19T22:56:16.049Z,954.34
2016-10-19T22:57:12.970Z,954.37
2016-10-19T22:58:13.125Z,954.34
2016-10-19T22:59:16.923Z,954.35
2016-10-19T23:00:12.767Z,954.35
2016-10-19T23:01:12.114Z,954.33
2016-10-19T23:02:12.828Z,954.37
2016-10-19T23:03:10.880Z,954.35
2016-10-19T23:04:10.765Z,954.34
2016-10-19T23:05:12.044Z,954.28
2016-10-19T23:06:12.132Z,954.33
2016-10-19T23:07:12.893Z,954.30
2016-10-19T23:08:12.210Z,954.30
2016-10-19T23:09:13.563Z,954.30
2016-10-19T23:10:12.632Z,954.29
2016-10-19T23:11:13.888Z,954.30
2016-10-19T23:12:11.883Z,954.24
2016-10-19T23:13:13.123Z,954.29
2016-10-19T23:14:12.071Z,954.27
2016-10-19T23:15:10.571Z,954.23
2016-10-19T23:16:12.599Z,954.22
2016-10-19T23:17:12.837Z,954.19
2016-10-19T23:18:11.721Z,954.18
2016-10-19T23:19:11.780Z,954.17
2016-10-19T23:20:13.725Z,954.17
2016-10-19T23:21:13.394Z,954.15
2016-10-19T23:22:13.598Z,954.16
2016-10-19T23:23:13.899Z,954.17
2016-10-19T23:24:13.786Z,954.13
2016-10-19T23:25:12.354Z,954.13
2016-10-19T23:26:12.586Z,954.16
2016-10-19T23:27:12.764Z,954.15
2016-10-19T23:28:12.881Z,954.15
2016-10-19T23:29:17.067Z,954.15
2016-10-19T23:30:15.115Z,954.14
2016-10-19T23:31:12.787Z,954.17
2016-10-19T23:32:12.387Z,954.17
2016-10-19T23:33:12.385Z,954.16
2016-10-19T23:34:13.157Z,954.14
2016-10-19T23:35:11.125Z,954.19
2016-10-19T23:36:18.456Z,954.18
2016-10-19T23:37:13.625Z,954.19
2016-10-19T23:38:12.476Z,954.18
2016-10-19T23:39:12.333Z,954.19
2016-10-19T23:40:12.351Z,954.16
2016-10-19T23:41:13.124Z,954.18
2016-10-19T23:42:09.425Z,954.16
2016-10-19T23:43:13.195Z,954.16
2016-10-19T23:44:10.648Z,954.20
2016-10-19T23:45:18.283Z,954.20
2016-10-19T23:46:12.218Z,954.21
2016-10-19T23:47:12.075Z,954.21
2016-10-19T23:48:12.114Z,954.19
2016-10-19T23:49:12.983Z,954.19
2016-10-19T23:50:12.642Z,954.20
2016-10-19T23:51:12.664Z,954.22
2016-10-19T23:52:13.227Z,954.21
2016-10-19T23:53:12.363Z,954.20
2016-10-19T23:54:12.918Z,954.24
2016-10-19T23:55:12.300Z,954.23
2016-10-19T23:56:12.178Z,954.23
2016-10-19T23:57:12.183Z,954.23
2016-10-19T23:58:13.178Z,954.26
2016-10-19T23:59:11.094Z,954.24
